Strona główna
METAR-TAF:

METAR-TAF

Lotnisko :

South Jersey Regional Airport

Mount Holly, New Jersey, Stany Zjednoczone

Szerokość geograficzna: 39-56-26N, Długość geograficzna: 074-50-28W, wysokość: 16 m

Aktualna obserwacja pogody

Raport powstał 30 minut temu, godzina 16:54 UTC
Wiatr 8 kt od wschód
Temperatura 9°C
Wilgotność 76%
Ciśnienie 1013 hPa
Widzialność: 14.5 km
Przerywane chmury na wysokości 2700 ft

METAR: KVAY 151654Z AUTO 10008KT 9SM BKN027 09/05 A2991 RMK AO2 SLP128 T00940050

czas: 12:24 (17:24 UTC)


TAF: brakujący

Obserwacja i prognoza pogody dla ponad 4000 lotnisk (raport METAR i TAF).

Dostępne stacje oznaczono żółtymi i czerwonymi punktami na mapie.

Najedź kursorem aby zobaczyć nazwę stacji.

Kliknij aby zobaczyć obserwacje i prognozy pogody.

Aby zmienić mapę: kliknij na zielony przycisk z czarnym krzyżykiem, aby powiększyć; na zielony przycisk z myślnikiem, aby pomniejszyć; na zielone strzałki, aby przejść do map sąsiednich.


METAR-TAF: